createdAt,value
2017-12-01T00:00:16.715Z,0.50
2017-12-01T00:02:45.869Z,0.50
2017-12-01T00:05:13.835Z,0.50
2017-12-01T00:07:41.782Z,0.40
2017-12-01T00:10:09.774Z,0.40
2017-12-01T00:12:37.577Z,0.40
2017-12-01T00:15:05.505Z,0.40
2017-12-01T00:17:33.479Z,0.40
2017-12-01T00:20:01.367Z,0.50
2017-12-01T00:22:29.316Z,0.50
2017-12-01T00:24:57.161Z,0.50
2017-12-01T00:27:25.362Z,0.50
2017-12-01T00:29:53.422Z,0.50
2017-12-01T00:32:21.392Z,0.50
2017-12-01T00:34:49.390Z,0.40
2017-12-01T00:37:17.369Z,0.40
2017-12-01T00:39:46.114Z,0.30
2017-12-01T00:42:13.997Z,0.30
2017-12-01T00:44:41.844Z,0.30
2017-12-01T00:47:09.749Z,0.40
2017-12-01T00:49:37.679Z,0.40
2017-12-01T00:52:05.673Z,0.30
2017-12-01T00:54:33.652Z,0.40
2017-12-01T00:57:02.221Z,0.30
2017-12-01T00:59:30.395Z,0.30
2017-12-01T01:01:58.450Z,0.30
2017-12-01T01:04:26.238Z,0.30
2017-12-01T01:06:54.179Z,0.30
2017-12-01T01:09:22.175Z,0.20
2017-12-01T01:11:50.040Z,0.20
2017-12-01T01:14:17.941Z,0.10
2017-12-01T01:16:46.055Z,0.10
2017-12-01T01:19:14.000Z,0.10
2017-12-01T01:21:42.093Z,0.10
2017-12-01T01:24:10.062Z,0.00
2017-12-01T01:26:38.027Z,0.00
2017-12-01T01:29:05.820Z,0.00
2017-12-01T01:31:33.638Z,0.10
2017-12-01T01:34:01.626Z,0.10
2017-12-01T01:36:29.433Z,0.10
2017-12-01T01:38:58.112Z,0.00
2017-12-01T01:41:26.148Z,0.00
2017-12-01T01:43:54.260Z,0.00
2017-12-01T01:46:22.962Z,0.00
2017-12-01T01:48:51.712Z,0.00
2017-12-01T01:51:19.656Z,0.00
2017-12-01T01:53:47.651Z,0.00
2017-12-01T01:56:16.620Z,0.00
2017-12-01T01:58:44.690Z,-0.10
2017-12-01T02:01:12.487Z,-0.10
2017-12-01T02:03:40.377Z,-0.10
2017-12-01T02:06:08.983Z,-0.10
2017-12-01T02:08:37.103Z,-0.10
2017-12-01T02:11:05.159Z,-0.10
2017-12-01T02:13:33.140Z,-0.20
2017-12-01T02:16:01.396Z,-0.20
2017-12-01T02:18:29.460Z,-0.20
2017-12-01T02:20:57.475Z,-0.20
2017-12-01T02:23:25.388Z,-0.30
2017-12-01T02:25:54.109Z,-0.30
2017-12-01T02:28:22.062Z,-0.30
2017-12-01T02:30:50.065Z,-0.40
2017-12-01T02:33:17.928Z,-0.40
2017-12-01T02:35:46.102Z,-0.30
2017-12-01T02:38:14.038Z,-0.30
2017-12-01T02:40:42.020Z,-0.20
2017-12-01T02:43:09.957Z,-0.20
2017-12-01T02:45:37.855Z,-0.20
2017-12-01T02:48:05.824Z,-0.20
2017-12-01T02:50:33.874Z,-0.20
2017-12-01T02:53:02.264Z,-0.20
2017-12-01T02:55:30.567Z,-0.20
2017-12-01T02:57:59.338Z,-0.20
2017-12-01T03:00:27.490Z,-0.20
2017-12-01T03:02:55.461Z,-0.30
2017-12-01T03:05:23.427Z,-0.20
2017-12-01T03:07:51.318Z,-0.10
2017-12-01T03:10:19.189Z,-0.10
2017-12-01T03:12:47.085Z,-0.10
2017-12-01T03:15:15.817Z,-0.10
2017-12-01T03:17:44.194Z,-0.10
2017-12-01T03:20:12.101Z,-0.10
2017-12-01T03:22:41.052Z,-0.10
2017-12-01T03:25:08.979Z,-0.10
2017-12-01T03:27:37.703Z,0.00
2017-12-01T03:30:05.598Z,0.00
2017-12-01T03:32:33.441Z,0.00
2017-12-01T03:35:01.408Z,0.00
2017-12-01T03:37:30.302Z,0.10
2017-12-01T03:39:58.478Z,0.00
2017-12-01T03:42:26.568Z,0.00
2017-12-01T03:44:54.487Z,0.10
2017-12-01T03:47:22.609Z,0.20
2017-12-01T03:49:50.432Z,0.30
2017-12-01T03:52:18.419Z,0.40
2017-12-01T03:54:46.506Z,0.40
2017-12-01T03:57:14.348Z,0.30
2017-12-01T03:59:42.339Z,0.30
2017-12-01T04:02:10.307Z,0.30
2017-12-01T04:04:38.179Z,0.30
2017-12-01T04:07:06.228Z,0.20
2017-12-01T04:09:34.422Z,0.20
2017-12-01T04:12:02.341Z,0.20
2017-12-01T04:14:30.360Z,0.30
2017-12-01T04:16:58.340Z,0.30
2017-12-01T04:19:26.290Z,0.30
2017-12-01T04:21:54.369Z,0.30
2017-12-01T04:24:22.461Z,0.30
2017-12-01T04:26:51.206Z,0.30
2017-12-01T04:29:19.277Z,0.20
2017-12-01T04:31:47.172Z,0.20
2017-12-01T04:34:15.358Z,0.20
2017-12-01T04:36:44.292Z,0.20
2017-12-01T04:39:12.351Z,0.20
2017-12-01T04:41:40.373Z,0.20
2017-12-01T04:44:08.526Z,0.10
2017-12-01T04:46:36.596Z,0.10
2017-12-01T04:49:04.769Z,0.00
2017-12-01T04:51:32.668Z,0.00
2017-12-01T04:54:00.842Z,0.00
2017-12-01T04:56:28.879Z,-0.10
2017-12-01T04:58:56.875Z,-0.10
2017-12-01T05:01:26.314Z,-0.10
2017-12-01T05:03:54.427Z,-0.10
2017-12-01T05:06:22.801Z,-0.10
2017-12-01T05:08:50.770Z,-0.10
2017-12-01T05:11:18.702Z,-0.10
2017-12-01T05:13:46.717Z,-0.10
2017-12-01T05:16:14.803Z,-0.10
2017-12-01T05:18:43.616Z,-0.10
2017-12-01T05:21:12.490Z,-0.10
2017-12-01T05:23:40.388Z,-0.10
2017-12-01T05:26:08.325Z,0.00
2017-12-01T05:28:36.327Z,0.00
2017-12-01T05:31:04.454Z,0.00
2017-12-01T05:33:32.506Z,0.00
2017-12-01T05:36:00.368Z,-0.10
2017-12-01T05:38:28.393Z,-0.10
2017-12-01T05:40:57.254Z,0.10
2017-12-01T05:43:25.138Z,0.00
2017-12-01T05:45:53.909Z,0.10
2017-12-01T05:48:22.597Z,0.00
2017-12-01T05:50:50.644Z,0.10
2017-12-01T05:53:18.607Z,0.00
2017-12-01T05:55:46.514Z,0.00
2017-12-01T05:58:15.074Z,0.00
2017-12-01T06:03:21.238Z,0.10
2017-12-01T06:05:49.361Z,0.20
2017-12-01T06:08:17.400Z,0.10
2017-12-01T06:10:45.320Z,0.20
2017-12-01T06:13:13.628Z,0.20
2017-12-01T06:15:41.817Z,0.20
2017-12-01T06:18:09.799Z,0.20
2017-12-01T06:20:37.649Z,0.20
2017-12-01T06:23:05.519Z,0.20
2017-12-01T06:25:33.572Z,0.10
2017-12-01T06:28:01.660Z,0.10
2017-12-01T06:30:29.612Z,0.00
2017-12-01T06:32:57.716Z,0.10
2017-12-01T06:35:25.792Z,0.20
2017-12-01T06:37:54.645Z,0.10
2017-12-01T06:40:22.714Z,0.10
2017-12-01T06:42:50.888Z,0.20
2017-12-01T06:45:18.961Z,0.20
2017-12-01T06:47:47.032Z,0.20
2017-12-01T06:50:15.138Z,0.20
2017-12-01T06:52:44.858Z,0.20
2017-12-01T06:55:13.707Z,0.20
2017-12-01T06:57:41.771Z,0.20
2017-12-01T07:00:09.841Z,0.30
2017-12-01T07:02:38.769Z,0.20
2017-12-01T07:05:07.008Z,0.20
2017-12-01T07:07:35.080Z,0.20
2017-12-01T07:10:03.060Z,0.20
2017-12-01T07:12:30.924Z,0.20
2017-12-01T07:14:58.832Z,0.20
2017-12-01T07:17:27.669Z,0.20
2017-12-01T07:19:55.748Z,0.20
2017-12-01T07:22:23.820Z,0.20
2017-12-01T07:24:51.786Z,0.30
2017-12-01T07:27:19.908Z,0.30
2017-12-01T07:29:48.645Z,0.20
2017-12-01T07:32:16.712Z,0.20
2017-12-01T07:34:44.780Z,0.20
2017-12-01T07:37:15.720Z,0.20
2017-12-01T07:39:43.698Z,0.20
2017-12-01T07:42:11.692Z,0.20
2017-12-01T07:44:39.767Z,0.20
2017-12-01T07:47:08.619Z,0.20
2017-12-01T07:49:36.690Z,0.10
2017-12-01T07:52:04.870Z,0.20
2017-12-01T07:54:33.689Z,0.20
2017-12-01T07:57:02.590Z,0.30
2017-12-01T07:59:31.332Z,0.30
2017-12-01T08:01:59.405Z,0.30
2017-12-01T08:04:27.470Z,0.30
2017-12-01T08:06:55.952Z,0.30
2017-12-01T08:09:24.069Z,0.40
2017-12-01T08:11:52.844Z,0.40
2017-12-01T08:14:21.809Z,0.40
2017-12-01T08:17:01.896Z,0.40
2017-12-01T08:19:30.848Z,0.40
2017-12-01T08:22:10.701Z,0.40
2017-12-01T08:24:50.747Z,0.40
2017-12-01T08:27:18.711Z,0.40
2017-12-01T08:29:47.707Z,0.50
2017-12-01T08:32:15.780Z,0.50
2017-12-01T08:34:44.057Z,0.50
2017-12-01T08:37:12.134Z,0.50
2017-12-01T08:39:40.263Z,0.60
2017-12-01T08:42:08.265Z,0.80
2017-12-01T08:44:36.340Z,0.90
2017-12-01T08:47:04.410Z,1.00
2017-12-01T08:49:32.580Z,1.20
2017-12-01T08:52:00.865Z,1.30
2017-12-01T08:54:28.866Z,1.20
2017-12-01T08:56:57.574Z,1.50
2017-12-01T08:59:26.938Z,1.60
2017-12-01T09:01:54.927Z,1.60
2017-12-01T09:04:23.881Z,1.60
2017-12-01T09:06:52.062Z,1.60
2017-12-01T09:09:20.028Z,1.70
2017-12-01T09:11:48.399Z,1.50
2017-12-01T09:14:16.505Z,1.40
2017-12-01T09:16:44.556Z,1.30
2017-12-01T09:19:12.525Z,1.20
2017-12-01T09:21:40.583Z,1.20
2017-12-01T09:24:08.548Z,1.40
2017-12-01T09:26:37.441Z,1.50
2017-12-01T09:29:05.514Z,1.40
2017-12-01T09:31:33.580Z,1.40
2017-12-01T09:34:01.657Z,1.40
2017-12-01T09:36:29.826Z,1.50
2017-12-01T09:38:57.897Z,1.60
2017-12-01T09:41:25.909Z,1.60
2017-12-01T09:43:54.866Z,1.60
2017-12-01T09:46:22.934Z,1.60
2017-12-01T09:48:51.047Z,1.70
2017-12-01T09:51:19.826Z,1.60
2017-12-01T09:53:47.964Z,1.60
2017-12-01T09:56:16.247Z,1.80
2017-12-01T09:58:44.528Z,1.90
2017-12-01T10:01:12.483Z,2.00
2017-12-01T10:03:40.486Z,2.20
2017-12-01T10:06:08.527Z,1.90
2017-12-01T10:08:36.492Z,1.60
2017-12-01T10:11:04.668Z,1.60
2017-12-01T10:13:32.839Z,1.60
2017-12-01T10:16:00.913Z,1.70
2017-12-01T10:18:28.879Z,1.80
2017-12-01T10:20:56.955Z,1.70
2017-12-01T10:23:24.918Z,1.70
2017-12-01T10:25:52.851Z,1.90
2017-12-01T10:28:20.790Z,1.80
2017-12-01T10:30:49.467Z,1.70
2017-12-01T10:33:17.610Z,1.70
2017-12-01T10:35:45.929Z,1.60
2017-12-01T10:38:14.778Z,1.60
2017-12-01T10:40:42.857Z,1.50
2017-12-01T10:43:11.442Z,1.50
2017-12-01T10:45:39.606Z,1.50
2017-12-01T10:48:07.574Z,1.60
2017-12-01T10:50:35.646Z,1.60
2017-12-01T10:53:03.663Z,1.60
2017-12-01T10:55:32.609Z,1.60
2017-12-01T10:58:01.565Z,1.60
2017-12-01T11:00:29.687Z,1.70
2017-12-01T11:02:57.645Z,1.80
2017-12-01T11:05:25.914Z,2.00
2017-12-01T11:07:53.902Z,2.00
2017-12-01T11:10:22.060Z,2.20
2017-12-01T11:12:50.234Z,2.40
2017-12-01T11:15:18.258Z,2.60
2017-12-01T11:17:46.945Z,2.70
2017-12-01T11:20:14.901Z,2.70
2017-12-01T11:22:43.580Z,2.50
2017-12-01T11:25:12.535Z,2.80
2017-12-01T11:27:40.627Z,2.80
2017-12-01T11:30:09.408Z,3.00
2017-12-01T11:32:37.362Z,3.20
2017-12-01T11:35:06.096Z,3.20
2017-12-01T11:37:34.835Z,3.90
2017-12-01T11:40:02.804Z,3.90
2017-12-01T11:42:30.671Z,4.20
2017-12-01T11:44:58.511Z,4.40
2017-12-01T11:47:27.017Z,4.50
2017-12-01T11:49:55.054Z,4.40
2017-12-01T11:52:22.988Z,4.20
2017-12-01T11:54:51.026Z,3.90
2017-12-01T11:57:19.096Z,3.80
2017-12-01T11:59:47.111Z,3.50
2017-12-01T12:02:16.086Z,3.30
2017-12-01T12:04:45.049Z,3.10
2017-12-01T12:07:13.052Z,3.10
2017-12-01T12:09:41.913Z,2.80
2017-12-01T12:12:09.984Z,2.80
2017-12-01T12:14:38.085Z,2.60
2017-12-01T12:17:06.330Z,2.50
2017-12-01T12:19:34.605Z,2.40
2017-12-01T12:22:02.804Z,2.60
2017-12-01T12:24:31.685Z,2.60
2017-12-01T12:26:59.742Z,2.60
2017-12-01T12:29:27.849Z,2.60
2017-12-01T12:31:57.089Z,2.40
2017-12-01T12:34:25.594Z,2.40
2017-12-01T12:36:53.726Z,2.40
2017-12-01T12:39:23.074Z,2.60
2017-12-01T12:41:51.244Z,2.60
2017-12-01T12:44:19.524Z,2.80
2017-12-01T12:46:47.896Z,2.90
2017-12-01T12:49:15.964Z,3.00
2017-12-01T12:51:44.143Z,3.00
2017-12-01T12:54:12.323Z,3.00
2017-12-01T12:56:40.715Z,2.80
2017-12-01T12:59:09.586Z,2.60
2017-12-01T13:01:37.698Z,2.60
2017-12-01T13:04:07.464Z,2.40
2017-12-01T13:06:35.674Z,2.40
2017-12-01T13:09:04.735Z,2.40
2017-12-01T13:11:33.005Z,2.40
2017-12-01T13:14:01.079Z,2.50
2017-12-01T13:16:29.354Z,2.60
2017-12-01T13:18:57.461Z,2.40
2017-12-01T13:21:25.610Z,2.40
2017-12-01T13:23:53.670Z,2.80
2017-12-01T13:26:21.945Z,2.90
2017-12-01T13:28:50.057Z,2.90
2017-12-01T13:31:19.009Z,2.90
2017-12-01T13:33:47.097Z,2.90
2017-12-01T13:36:15.357Z,2.90
2017-12-01T13:38:43.701Z,3.10
2017-12-01T13:41:11.706Z,3.60
2017-12-01T13:43:39.885Z,3.90
2017-12-01T13:46:08.055Z,3.80
2017-12-01T13:48:36.329Z,3.80
2017-12-01T13:51:05.115Z,3.90
2017-12-01T13:53:33.304Z,4.00
2017-12-01T13:56:01.361Z,4.10
2017-12-01T13:58:29.333Z,4.20
2017-12-01T14:00:57.398Z,4.30
2017-12-01T14:03:26.402Z,4.20
2017-12-01T14:05:54.462Z,4.00
2017-12-01T14:08:22.464Z,4.10
2017-12-01T14:10:50.504Z,4.10
2017-12-01T14:13:18.473Z,4.40
2017-12-01T14:15:46.540Z,4.40
2017-12-01T14:18:14.726Z,4.50
2017-12-01T14:20:42.791Z,4.40
2017-12-01T14:23:11.782Z,4.40
2017-12-01T14:25:39.786Z,3.80
2017-12-01T14:28:08.029Z,3.30
2017-12-01T14:30:37.631Z,3.30
2017-12-01T14:33:05.640Z,3.00
2017-12-01T14:35:33.674Z,2.70
2017-12-01T14:38:01.675Z,2.50
2017-12-01T14:40:29.611Z,2.40
2017-12-01T14:42:57.683Z,2.20
2017-12-01T14:45:25.751Z,2.10
2017-12-01T14:47:53.726Z,2.20
2017-12-01T14:50:21.894Z,2.10
2017-12-01T14:52:49.863Z,2.00
2017-12-01T14:55:17.779Z,1.90
2017-12-01T14:57:46.599Z,1.50
2017-12-01T15:00:15.102Z,1.50
2017-12-01T15:02:43.091Z,1.40
2017-12-01T15:05:13.408Z,1.30
2017-12-01T15:07:41.292Z,1.20
2017-12-01T15:10:10.758Z,1.10
2017-12-01T15:12:38.665Z,1.10
2017-12-01T15:15:06.511Z,1.10
2017-12-01T15:17:34.568Z,1.00
2017-12-01T15:20:02.936Z,0.90
2017-12-01T15:22:30.732Z,0.80
2017-12-01T15:25:00.144Z,0.60
2017-12-01T15:27:28.119Z,0.60
2017-12-01T15:29:56.159Z,0.60
2017-12-01T15:32:24.263Z,0.50
2017-12-01T15:34:52.934Z,0.40
2017-12-01T15:37:20.905Z,0.30
2017-12-01T15:39:49.524Z,0.00
2017-12-01T15:42:18.135Z,-0.10
2017-12-01T15:44:46.216Z,-0.10
2017-12-01T15:47:14.307Z,-0.20
2017-12-01T15:49:42.159Z,-0.20
2017-12-01T15:52:10.144Z,-0.20
2017-12-01T15:54:38.216Z,-0.30
2017-12-01T15:57:06.912Z,-0.50
2017-12-01T15:59:35.663Z,-0.60
2017-12-01T16:02:03.563Z,-0.70
2017-12-01T16:04:31.430Z,-0.70
2017-12-01T16:06:59.525Z,-0.70
2017-12-01T16:09:28.509Z,-0.80
2017-12-01T16:11:57.278Z,-0.80
2017-12-01T16:14:25.334Z,-0.80
2017-12-01T16:16:53.289Z,-0.80
2017-12-01T16:19:21.773Z,-0.90
2017-12-01T16:21:49.740Z,-1.10
2017-12-01T16:24:17.717Z,-1.10
2017-12-01T16:26:50.608Z,-1.10
2017-12-01T16:29:18.701Z,-1.00
2017-12-01T16:31:46.740Z,-0.80
2017-12-01T16:34:14.909Z,-0.90
2017-12-01T16:36:44.239Z,-1.10
2017-12-01T16:39:12.894Z,-1.30
2017-12-01T16:41:41.370Z,-1.30
2017-12-01T16:44:09.262Z,-1.30
2017-12-01T16:46:37.496Z,-1.30
2017-12-01T16:49:05.528Z,-1.30
2017-12-01T16:51:34.264Z,-1.80
2017-12-01T16:54:03.376Z,-1.90
2017-12-01T16:56:32.006Z,-1.90
2017-12-01T16:59:00.052Z,-1.90
2017-12-01T17:01:28.894Z,-1.90
2017-12-01T17:03:57.411Z,-1.90
2017-12-01T17:06:25.398Z,-1.90
2017-12-01T17:08:53.914Z,-1.90
2017-12-01T17:11:22.033Z,-1.90
2017-12-01T17:13:49.932Z,-2.00
2017-12-01T17:16:18.214Z,-2.10
2017-12-01T17:18:46.289Z,-2.10
2017-12-01T17:21:14.521Z,-2.10
2017-12-01T17:23:42.614Z,-2.20
2017-12-01T17:26:10.876Z,-2.20
2017-12-01T17:28:39.037Z,-2.20
2017-12-01T17:31:07.064Z,-1.90
2017-12-01T17:33:35.088Z,-1.90
2017-12-01T17:36:03.341Z,-2.00
2017-12-01T17:38:31.511Z,-2.20
2017-12-01T17:40:59.420Z,-2.20
2017-12-01T17:43:28.177Z,-2.20
2017-12-01T17:45:56.266Z,-2.30
2017-12-01T17:48:24.514Z,-2.20
2017-12-01T17:50:52.530Z,-1.80
2017-12-01T17:53:21.709Z,-1.60
2017-12-01T17:55:49.818Z,-1.60
2017-12-01T17:58:18.160Z,-1.70
2017-12-01T18:00:46.513Z,-1.80
2017-12-01T18:03:14.732Z,-1.80
2017-12-01T18:05:43.784Z,-1.90
2017-12-01T18:08:11.777Z,-1.90
2017-12-01T18:10:40.390Z,-1.90
2017-12-01T18:13:09.138Z,-2.10
2017-12-01T18:15:37.638Z,-2.10
2017-12-01T18:18:05.685Z,-1.90
2017-12-01T18:20:34.931Z,-1.70
2017-12-01T18:23:02.944Z,-1.60
2017-12-01T18:25:30.849Z,-1.50
2017-12-01T18:27:59.717Z,-1.30
2017-12-01T18:30:27.866Z,-1.30
2017-12-01T18:32:55.837Z,-1.30
2017-12-01T18:35:23.835Z,-1.40
2017-12-01T18:37:51.801Z,-1.30
2017-12-01T18:40:19.841Z,-1.40
2017-12-01T18:42:48.145Z,-1.40
2017-12-01T18:45:17.013Z,-1.40
2017-12-01T18:47:45.312Z,-1.40
2017-12-01T18:50:14.261Z,-1.50
2017-12-01T18:52:42.451Z,-1.50
2017-12-01T18:55:11.463Z,-1.70
2017-12-01T18:57:39.648Z,-1.90
2017-12-01T19:00:07.687Z,-2.10
2017-12-01T19:02:35.619Z,-2.20
2017-12-01T19:05:03.975Z,-2.40
2017-12-01T19:07:32.227Z,-2.50
2017-12-01T19:10:00.502Z,-2.60
2017-12-01T19:12:28.972Z,-2.60
2017-12-01T19:14:57.628Z,-2.60
2017-12-01T19:17:25.770Z,-2.60
2017-12-01T19:19:54.824Z,-2.50
2017-12-01T19:22:23.319Z,-2.50
2017-12-01T19:24:52.292Z,-2.30
2017-12-01T19:27:20.468Z,-2.40
2017-12-01T19:29:49.115Z,-2.40
2017-12-01T19:32:17.390Z,-2.50
2017-12-01T19:34:45.935Z,-2.40
2017-12-01T19:37:14.129Z,-2.40
2017-12-01T19:39:43.429Z,-2.20
2017-12-01T19:42:12.377Z,-2.10
2017-12-01T19:44:40.998Z,-2.10
2017-12-01T19:47:09.341Z,-2.00
2017-12-01T19:49:37.732Z,-1.90
2017-12-01T19:52:06.021Z,-1.90
2017-12-01T19:54:35.084Z,-1.90
2017-12-01T19:57:04.177Z,-1.90
2017-12-01T19:59:33.208Z,-1.80
2017-12-01T20:02:02.053Z,-1.80
2017-12-01T20:04:30.142Z,-1.80
2017-12-01T20:06:58.442Z,-1.80
2017-12-01T20:09:27.412Z,-1.90
2017-12-01T20:11:56.211Z,-1.80
2017-12-01T20:14:24.500Z,-1.80
2017-12-01T20:16:54.303Z,-1.80
2017-12-01T20:19:22.549Z,-1.70
2017-12-01T20:21:50.864Z,-1.70
2017-12-01T20:24:20.223Z,-1.60
2017-12-01T20:26:48.605Z,-1.60
2017-12-01T20:29:16.766Z,-1.40
2017-12-01T20:31:45.568Z,-1.40
2017-12-01T20:34:13.592Z,-1.30
2017-12-01T20:36:41.819Z,-1.20
2017-12-01T20:39:10.993Z,-1.20
2017-12-01T20:41:39.093Z,-1.30
2017-12-01T20:44:08.156Z,-1.30
2017-12-01T20:46:36.300Z,-1.20
2017-12-01T20:49:05.176Z,-1.10
2017-12-01T20:51:33.423Z,-1.10
2017-12-01T20:54:02.687Z,-1.00
2017-12-01T20:56:31.206Z,-0.90
2017-12-01T20:58:59.311Z,-0.90
2017-12-01T21:01:28.199Z,-0.90
2017-12-01T21:03:56.864Z,-0.90
2017-12-01T21:06:24.839Z,-0.90
2017-12-01T21:08:52.884Z,-0.90
2017-12-01T21:11:20.949Z,-0.90
2017-12-01T21:13:48.919Z,-0.90
2017-12-01T21:16:16.836Z,-0.90
2017-12-01T21:18:45.878Z,-0.90
2017-12-01T21:21:13.781Z,-0.90
2017-12-01T21:23:41.694Z,-0.90
2017-12-01T21:26:09.697Z,-0.90
2017-12-01T21:28:37.803Z,-0.90
2017-12-01T21:31:06.648Z,-0.90
2017-12-01T21:33:34.755Z,-0.90
2017-12-01T21:36:02.888Z,-0.90
2017-12-01T21:38:30.898Z,-0.90
2017-12-01T21:40:59.563Z,-0.90
2017-12-01T21:43:27.418Z,-1.00
2017-12-01T21:45:55.597Z,-1.00
2017-12-01T21:48:23.553Z,-1.00
2017-12-01T21:50:51.755Z,-1.10
2017-12-01T21:53:19.693Z,-1.10
2017-12-01T21:55:47.559Z,-1.10
2017-12-01T21:58:15.445Z,-1.20
2017-12-01T22:00:43.316Z,-1.20
2017-12-01T22:03:11.471Z,-1.20
2017-12-01T22:05:40.258Z,-1.20
2017-12-01T22:08:08.152Z,-1.30
2017-12-01T22:10:36.295Z,-1.30
2017-12-01T22:13:04.188Z,-1.30
2017-12-01T22:15:32.232Z,-1.30
2017-12-01T22:18:00.441Z,-1.30
2017-12-01T22:20:29.190Z,-1.30
2017-12-01T22:22:57.179Z,-1.30
2017-12-01T22:25:25.333Z,-1.30
2017-12-01T22:27:53.605Z,-1.30
2017-12-01T22:30:21.603Z,-1.30
2017-12-01T22:32:49.571Z,-1.30
2017-12-01T22:35:17.622Z,-1.30
2017-12-01T22:37:45.690Z,-1.30
2017-12-01T22:40:13.869Z,-1.30
2017-12-01T22:42:41.828Z,-1.30
2017-12-01T22:45:09.816Z,-1.30
2017-12-01T22:47:38.312Z,-1.20
2017-12-01T22:50:06.499Z,-1.20
2017-12-01T22:52:35.163Z,-1.00
2017-12-01T22:55:03.108Z,-1.10
2017-12-01T22:57:30.910Z,-1.00
2017-12-01T22:59:58.957Z,-1.00
2017-12-01T23:02:26.744Z,-1.00
2017-12-01T23:04:54.764Z,-1.00
2017-12-01T23:07:23.256Z,-1.00
2017-12-01T23:09:51.134Z,-0.90
2017-12-01T23:12:20.626Z,-0.90
2017-12-01T23:14:48.516Z,-0.90
2017-12-01T23:17:16.462Z,-0.90
2017-12-01T23:19:44.351Z,-0.80
2017-12-01T23:22:12.219Z,-0.80
2017-12-01T23:24:40.226Z,-0.80
2017-12-01T23:27:08.256Z,-0.80
2017-12-01T23:29:36.412Z,-0.70
2017-12-01T23:32:04.306Z,-0.70
2017-12-01T23:34:32.184Z,-0.70
2017-12-01T23:37:00.829Z,-0.80
2017-12-01T23:39:28.793Z,-0.90
2017-12-01T23:41:56.614Z,-0.90
2017-12-01T23:44:25.283Z,-0.90
2017-12-01T23:46:53.136Z,-0.90
2017-12-01T23:49:21.108Z,-0.90
2017-12-01T23:51:49.767Z,-0.90
2017-12-01T23:54:17.841Z,-0.90
2017-12-01T23:56:45.829Z,-0.90
2017-12-01T23:59:13.788Z,-0.90
